createdAt,value
2023-02-25T00:01:51.341Z,100150.63
2023-02-25T00:04:29.191Z,100146.13
2023-02-25T00:06:56.478Z,100148.94
2023-02-25T00:09:23.622Z,100136.63
2023-02-25T00:11:50.659Z,100135.69
2023-02-25T00:14:17.732Z,100130.44
2023-02-25T00:16:45.227Z,100124.13
2023-02-25T00:19:12.453Z,100111.72
2023-02-25T00:21:39.568Z,100113.53
2023-02-25T00:24:15.994Z,100108.28
2023-02-25T00:26:44.962Z,100105.75
2023-02-25T00:29:14.667Z,100104.03
2023-02-25T00:31:42.043Z,100107.66
2023-02-25T00:34:09.466Z,100111.09
2023-02-25T00:36:36.548Z,100107.44
2023-02-25T00:39:06.081Z,100109.16
2023-02-25T00:41:35.809Z,100110.03
2023-02-25T00:44:05.850Z,100093.97
2023-02-25T00:46:33.646Z,100105.63
2023-02-25T00:49:01.838Z,100103.69
2023-02-25T00:51:33.800Z,100093.97
2023-02-25T00:54:01.047Z,100084.97
2023-02-25T00:56:28.207Z,100079.63
2023-02-25T00:58:55.306Z,100070.63
2023-02-25T01:01:34.240Z,100066.16
2023-02-25T01:04:01.716Z,100055.69
2023-02-25T01:06:34.016Z,100061.25
2023-02-25T01:09:01.516Z,100057.06
2023-02-25T01:11:32.999Z,100052.06
2023-02-25T01:14:06.574Z,100052.19
2023-02-25T01:16:35.754Z,100048.78
2023-02-25T01:19:11.692Z,100043.53
2023-02-25T01:21:43.908Z,100043.66
2023-02-25T01:24:16.222Z,100044.63
2023-02-25T01:26:46.402Z,100039.38
2023-02-25T01:29:39.335Z,100036.69
2023-02-25T01:32:12.043Z,100028.69
2023-02-25T01:34:40.864Z,100022.47
2023-02-25T01:37:09.773Z,100021.63
2023-02-25T01:39:41.133Z,100024.31
2023-02-25T01:42:15.705Z,100020.78
2023-02-25T01:45:17.673Z,100018.97
2023-02-25T01:47:50.644Z,100008.34
2023-02-25T01:50:20.729Z,100010.19
2023-02-25T01:52:51.338Z,100002.28
2023-02-25T01:55:18.836Z,99993.53
2023-02-25T01:57:46.127Z,99990.94
2023-02-25T02:00:17.406Z,99988.50
2023-02-25T02:02:47.580Z,99992.44
2023-02-25T02:05:15.293Z,99991.69
2023-02-25T02:07:42.778Z,99984.88
2023-02-25T02:10:11.385Z,99978.78
2023-02-25T02:12:43.164Z,99984.25
2023-02-25T02:15:14.945Z,99981.78
2023-02-25T02:17:55.308Z,99980.94
2023-02-25T02:20:34.881Z,99968.56
2023-02-25T02:23:22.174Z,99963.22
2023-02-25T02:26:11.791Z,99968.66
2023-02-25T02:28:57.321Z,99968.78
2023-02-25T02:32:12.479Z,99964.50
2023-02-25T02:35:13.159Z,99956.81
2023-02-25T02:38:26.124Z,99954.25
2023-02-25T02:41:15.610Z,99943.66
2023-02-25T02:43:54.912Z,99943.78
2023-02-25T02:46:28.432Z,99945.72
2023-02-25T02:49:11.830Z,99945.94
2023-02-25T02:51:46.663Z,99937.19
2023-02-25T02:54:16.499Z,99939.03
2023-02-25T02:56:48.203Z,99939.09
2023-02-25T02:59:29.874Z,99929.50
2023-02-25T03:02:13.352Z,99929.00
2023-02-25T03:04:43.899Z,99925.69
2023-02-25T03:07:14.524Z,99937.44
2023-02-25T03:10:04.249Z,99934.84
2023-02-25T03:12:33.734Z,99928.88
2023-02-25T03:15:00.778Z,99922.91
2023-02-25T03:17:36.465Z,99919.53
2023-02-25T03:20:13.145Z,99919.81
2023-02-25T03:22:45.572Z,99915.69
2023-02-25T03:25:32.437Z,99921.22
2023-02-25T03:28:07.990Z,99919.53
2023-02-25T03:30:40.313Z,99912.59
2023-02-25T03:33:18.742Z,99915.25
2023-02-25T03:35:48.525Z,99909.16
2023-02-25T03:38:21.279Z,99907.69
2023-02-25T03:40:50.611Z,99919.31
2023-02-25T03:43:33.518Z,99922.09
2023-02-25T03:46:02.576Z,99918.56
2023-02-25T03:48:30.775Z,99909.81
2023-02-25T03:51:04.488Z,99904.59
2023-02-25T03:53:35.799Z,99909.06
2023-02-25T03:56:17.178Z,99905.00
2023-02-25T03:58:45.141Z,99908.22
2023-02-25T04:01:18.224Z,99913.97
2023-02-25T04:03:45.990Z,99902.03
2023-02-25T04:06:14.736Z,99902.34
2023-02-25T04:08:42.974Z,99897.22
2023-02-25T04:11:10.133Z,99901.81
2023-02-25T04:13:38.391Z,99907.44
2023-02-25T04:16:08.009Z,99907.56
2023-02-25T04:18:36.061Z,99900.75
2023-02-25T04:21:07.575Z,99898.16
2023-02-25T04:23:36.245Z,99899.22
2023-02-25T04:26:03.931Z,99892.28
2023-02-25T04:28:31.097Z,99892.41
2023-02-25T04:30:58.372Z,99886.31
2023-02-25T04:33:25.523Z,99879.38
2023-02-25T04:35:52.482Z,99872.31
2023-02-25T04:38:19.486Z,99873.34
2023-02-25T04:40:46.572Z,99877.09
2023-02-25T04:43:13.618Z,99867.50
2023-02-25T04:45:40.660Z,99866.75
2023-02-25T04:48:08.229Z,99855.34
2023-02-25T04:50:35.593Z,99859.91
2023-02-25T04:53:02.851Z,99859.06
2023-02-25T04:55:30.461Z,99860.78
2023-02-25T04:57:58.283Z,99860.03
2023-02-25T05:00:27.113Z,99856.50
2023-02-25T05:02:54.467Z,99858.22
2023-02-25T05:05:21.968Z,99855.66
2023-02-25T05:07:49.327Z,99857.59
2023-02-25T05:10:16.593Z,99859.38
2023-02-25T05:12:43.707Z,99859.69
2023-02-25T05:15:11.987Z,99859.03
2023-02-25T05:17:39.066Z,99860.00
2023-02-25T05:20:12.014Z,99864.47
2023-02-25T05:22:40.121Z,99864.47
2023-02-25T05:25:08.897Z,99864.38
2023-02-25T05:27:36.530Z,99859.88
2023-02-25T05:30:04.989Z,99859.81
2023-02-25T05:32:32.426Z,99858.91
2023-02-25T05:35:00.438Z,99857.13
2023-02-25T05:37:27.591Z,99853.59
2023-02-25T05:39:54.670Z,99857.34
2023-02-25T05:42:21.719Z,99855.81
2023-02-25T05:44:48.679Z,99859.56
2023-02-25T05:47:15.953Z,99858.03
2023-02-25T05:49:43.624Z,99852.19
2023-02-25T05:52:11.883Z,99847.78
2023-02-25T05:54:39.030Z,99848.75
2023-02-25T05:57:06.717Z,99849.59
2023-02-25T05:59:36.607Z,99840.13
2023-02-25T06:02:04.464Z,99841.09
2023-02-25T06:04:32.523Z,99845.56
2023-02-25T06:06:59.749Z,99843.09
2023-02-25T06:09:27.299Z,99854.88
2023-02-25T06:11:54.334Z,99858.63
2023-02-25T06:14:21.453Z,99865.00
2023-02-25T06:16:49.096Z,99868.91
2023-02-25T06:19:17.325Z,99872.63
2023-02-25T06:21:44.322Z,99877.03
2023-02-25T06:24:11.394Z,99881.47
2023-02-25T06:26:41.932Z,99880.75
2023-02-25T06:29:10.370Z,99879.97
2023-02-25T06:31:37.583Z,99887.97
2023-02-25T06:34:06.038Z,99882.56
2023-02-25T06:36:33.914Z,99893.00
2023-02-25T06:39:01.284Z,99885.75
2023-02-25T06:41:28.415Z,99881.19
2023-02-25T06:43:55.548Z,99870.22
2023-02-25T06:46:25.839Z,99875.34
2023-02-25T06:48:53.976Z,99879.63
2023-02-25T06:51:22.179Z,99875.81
2023-02-25T06:53:51.087Z,99874.63
2023-02-25T06:56:20.405Z,99875.41
2023-02-25T06:58:48.261Z,99873.38
2023-02-25T07:01:17.184Z,99876.69
2023-02-25T07:03:45.463Z,99871.16
2023-02-25T07:06:16.085Z,99867.44
2023-02-25T07:08:43.446Z,99858.41
2023-02-25T07:11:19.590Z,99859.13
2023-02-25T07:13:48.628Z,99856.25
2023-02-25T07:16:17.266Z,99858.50
2023-02-25T07:18:45.598Z,99850.72
2023-02-25T07:21:13.896Z,99852.44
2023-02-25T07:23:42.229Z,99847.78
2023-02-25T07:26:12.792Z,99844.03
2023-02-25T07:28:40.749Z,99839.56
2023-02-25T07:31:21.986Z,99835.72
2023-02-25T07:33:49.783Z,99828.50
2023-02-25T07:36:18.010Z,99822.06
2023-02-25T07:38:47.045Z,99813.22
2023-02-25T07:41:18.754Z,99814.63
2023-02-25T07:43:46.339Z,99814.31
2023-02-25T07:46:13.632Z,99812.28
2023-02-25T07:48:41.427Z,99818.28
2023-02-25T07:51:24.599Z,99805.59
2023-02-25T07:53:54.374Z,99812.41
2023-02-25T07:56:23.653Z,99802.59
2023-02-25T07:58:50.830Z,99797.69
2023-02-25T08:01:28.096Z,99797.47
2023-02-25T08:03:59.170Z,99787.66
2023-02-25T08:06:27.539Z,99795.13
2023-02-25T08:08:55.547Z,99792.25
2023-02-25T08:11:25.761Z,99792.25
2023-02-25T08:13:53.991Z,99783.16
2023-02-25T08:16:22.307Z,99785.38
2023-02-25T08:18:49.866Z,99775.34
2023-02-25T08:21:24.582Z,99769.78
2023-02-25T08:23:53.743Z,99775.53
2023-02-25T08:26:23.340Z,99756.41
2023-02-25T08:28:51.993Z,99754.25
2023-02-25T08:31:20.531Z,99750.41
2023-02-25T08:33:50.106Z,99749.09
2023-02-25T08:36:23.300Z,99744.38
2023-02-25T08:38:51.556Z,99755.25
2023-02-25T08:41:21.787Z,99754.03
2023-02-25T08:43:56.824Z,99749.94
2023-02-25T08:46:28.992Z,99752.16
2023-02-25T08:48:56.756Z,99743.44
2023-02-25T08:51:34.063Z,99745.38
2023-02-25T08:54:08.783Z,99748.56
2023-02-25T08:56:37.201Z,99740.19
2023-02-25T08:59:05.278Z,99741.78
2023-02-25T09:01:45.080Z,99746.56
2023-02-25T09:04:19.792Z,99740.63
2023-02-25T09:06:47.822Z,99729.47
2023-02-25T09:09:17.596Z,99719.25
2023-02-25T09:11:46.302Z,99722.34
2023-02-25T09:14:14.257Z,99716.75
2023-02-25T09:16:41.555Z,99717.38
2023-02-25T09:19:10.789Z,99725.91
2023-02-25T09:21:40.483Z,99724.91
2023-02-25T09:24:09.131Z,99718.38
2023-02-25T09:26:36.981Z,99717.16
2023-02-25T09:29:05.899Z,99714.13
2023-02-25T09:31:34.829Z,99711.22
2023-02-25T09:34:04.717Z,99714.38
2023-02-25T09:36:32.769Z,99715.09
2023-02-25T09:39:00.268Z,99710.25
2023-02-25T09:41:51.119Z,99707.19
2023-02-25T09:44:39.103Z,99703.31
2023-02-25T09:47:23.063Z,99699.75
2023-02-25T09:50:18.596Z,99693.94
2023-02-25T09:52:58.362Z,99691.00
2023-02-25T09:55:36.580Z,99690.53
2023-02-25T09:58:37.842Z,99691.13
2023-02-25T10:01:06.565Z,99681.91
2023-02-25T10:03:59.569Z,99681.13
2023-02-25T10:06:49.231Z,99684.16
2023-02-25T10:09:56.792Z,99689.13
2023-02-25T10:12:41.952Z,99690.13
2023-02-25T10:15:24.920Z,99689.47
2023-02-25T10:18:13.149Z,99688.00
2023-02-25T10:21:07.786Z,99689.91
2023-02-25T10:24:11.752Z,99691.94
2023-02-25T10:26:46.658Z,99684.41
2023-02-25T10:29:25.610Z,99685.09
2023-02-25T10:32:00.058Z,99688.44
2023-02-25T10:34:30.391Z,99683.31
2023-02-25T10:37:00.268Z,99678.84
2023-02-25T10:39:29.154Z,99676.34
2023-02-25T10:41:56.411Z,99670.94
2023-02-25T10:44:23.454Z,99659.69
2023-02-25T10:46:56.345Z,99663.53
2023-02-25T10:49:27.599Z,99655.47
2023-02-25T10:52:04.471Z,99650.16
2023-02-25T10:54:35.436Z,99651.72
2023-02-25T10:57:14.160Z,99643.00
2023-02-25T10:59:45.427Z,99641.91
2023-02-25T11:02:30.594Z,99650.25
2023-02-25T11:04:58.779Z,99645.47
2023-02-25T11:07:41.900Z,99640.13
2023-02-25T11:10:19.842Z,99651.31
2023-02-25T11:12:54.082Z,99646.56
2023-02-25T11:15:45.849Z,99638.50
2023-02-25T11:18:27.438Z,99629.34
2023-02-25T11:21:03.635Z,99631.19
2023-02-25T11:23:46.381Z,99625.38
2023-02-25T11:26:34.520Z,99633.31
2023-02-25T11:29:07.863Z,99622.84
2023-02-25T11:31:40.964Z,99613.41
2023-02-25T11:34:30.730Z,99613.22
2023-02-25T11:37:48.309Z,99604.16
2023-02-25T11:40:21.479Z,99601.47
2023-02-25T11:43:20.176Z,99594.84
2023-02-25T11:45:57.952Z,99569.94
2023-02-25T11:48:29.729Z,99582.91
2023-02-25T11:51:18.558Z,99574.28
2023-02-25T11:54:24.512Z,99565.88
2023-02-25T11:57:16.657Z,99572.56
2023-02-25T12:00:30.081Z,99553.75
2023-02-25T12:03:17.483Z,99548.16
2023-02-25T12:05:54.841Z,99546.13
2023-02-25T12:09:05.789Z,99541.91
2023-02-25T12:11:40.405Z,99543.84
2023-02-25T12:14:45.072Z,99534.31
2023-02-25T12:17:20.981Z,99523.25
2023-02-25T12:20:19.055Z,99530.59
2023-02-25T12:23:13.920Z,99518.38
2023-02-25T12:25:59.758Z,99521.47
2023-02-25T12:29:01.328Z,99514.16
2023-02-25T12:31:48.356Z,99518.47
2023-02-25T12:35:07.022Z,99516.88
2023-02-25T12:38:29.025Z,99501.41
2023-02-25T12:41:39.760Z,99497.81
2023-02-25T12:44:45.709Z,99497.50
2023-02-25T12:47:50.794Z,99488.41
2023-02-25T12:50:18.081Z,99485.31
2023-02-25T12:53:13.792Z,99478.03
2023-02-25T12:56:14.923Z,99471.16
2023-02-25T12:58:59.720Z,99467.63
2023-02-25T13:01:57.650Z,99467.47
2023-02-25T13:04:33.554Z,99457.88
2023-02-25T13:07:32.076Z,99457.72
2023-02-25T13:10:22.194Z,99448.97
2023-02-25T13:13:01.066Z,99450.09
2023-02-25T13:16:05.876Z,99448.25
2023-02-25T13:18:58.787Z,99440.91
2023-02-25T13:21:47.962Z,99432.97
2023-02-25T13:24:27.926Z,99433.66
2023-02-25T13:27:32.433Z,99428.19
2023-02-25T13:30:14.510Z,99429.72
2023-02-25T13:32:57.569Z,99422.66
2023-02-25T13:36:02.849Z,99408.44
2023-02-25T13:38:54.299Z,99399.22
2023-02-25T13:41:42.313Z,99406.56
2023-02-25T13:44:28.615Z,99391.66
2023-02-25T13:47:22.828Z,99396.03
2023-02-25T13:49:58.048Z,99390.66
2023-02-25T13:52:58.813Z,99395.59
2023-02-25T13:56:04.783Z,99389.03
2023-02-25T13:59:02.582Z,99383.63
2023-02-25T14:02:13.999Z,99372.03
2023-02-25T14:05:23.913Z,99376.88
2023-02-25T14:08:13.062Z,99371.19
2023-02-25T14:10:47.837Z,99361.97
2023-02-25T14:14:10.779Z,99361.25
2023-02-25T14:17:12.008Z,99361.25
2023-02-25T14:19:57.107Z,99354.50
2023-02-25T14:22:42.599Z,99357.44
2023-02-25T14:25:34.516Z,99353.06
2023-02-25T14:28:19.466Z,99351.56
2023-02-25T14:31:11.022Z,99351.19
2023-02-25T14:34:23.118Z,99346.53
2023-02-25T14:37:40.285Z,99350.06
2023-02-25T14:40:27.761Z,99347.66
2023-02-25T14:43:14.613Z,99347.34
2023-02-25T14:45:56.246Z,99342.31
2023-02-25T14:48:49.320Z,99337.47
2023-02-25T14:52:08.671Z,99337.47
2023-02-25T14:55:29.304Z,99336.09
2023-02-25T14:58:39.141Z,99333.19
2023-02-25T15:01:39.511Z,99333.38
2023-02-25T15:04:12.619Z,99330.38
2023-02-25T15:07:00.702Z,99330.19
2023-02-25T15:10:02.014Z,99332.97
2023-02-25T15:12:38.151Z,99317.97
2023-02-25T15:15:08.598Z,99318.16
2023-02-25T15:18:03.135Z,99325.91
2023-02-25T15:20:41.500Z,99322.47
2023-02-25T15:23:16.245Z,99326.69
2023-02-25T15:25:56.802Z,99318.91
2023-02-25T15:28:30.149Z,99316.63
2023-02-25T15:31:02.808Z,99313.22
2023-02-25T15:33:42.573Z,99308.69
2023-02-25T15:36:15.777Z,99309.38
2023-02-25T15:38:51.030Z,99310.19
2023-02-25T15:41:42.639Z,99306.47
2023-02-25T15:44:10.948Z,99315.03
2023-02-25T15:46:49.246Z,99317.84
2023-02-25T15:49:36.313Z,99322.41
2023-02-25T15:52:06.563Z,99324.38
2023-02-25T15:54:33.685Z,99327.38
2023-02-25T15:57:26.869Z,99323.03
2023-02-25T15:59:57.907Z,99319.41
2023-02-25T16:02:33.317Z,99324.56
2023-02-25T16:05:09.523Z,99320.88
2023-02-25T16:07:49.354Z,99317.81
2023-02-25T16:10:19.359Z,99315.28
2023-02-25T16:12:51.744Z,99319.66
2023-02-25T16:15:35.176Z,99321.34
2023-02-25T16:18:36.747Z,99323.19
2023-02-25T16:21:08.256Z,99332.34
2023-02-25T16:23:40.506Z,99338.56
2023-02-25T16:26:54.686Z,99336.88
2023-02-25T16:29:33.631Z,99332.47
2023-02-25T16:32:32.526Z,99345.09
2023-02-25T16:35:22.287Z,99348.25
2023-02-25T16:38:18.100Z,99355.31
2023-02-25T16:40:46.171Z,99357.44
2023-02-25T16:43:22.299Z,99359.31
2023-02-25T16:46:04.352Z,99359.88
2023-02-25T16:48:39.624Z,99362.56
2023-02-25T16:51:36.443Z,99367.09
2023-02-25T16:54:22.644Z,99367.53
2023-02-25T16:56:55.299Z,99373.31
2023-02-25T16:59:24.206Z,99369.53
2023-02-25T17:02:25.065Z,99373.19
2023-02-25T17:04:56.176Z,99377.59
2023-02-25T17:07:30.184Z,99375.75
2023-02-25T17:10:04.125Z,99369.25
2023-02-25T17:12:32.547Z,99381.44
2023-02-25T17:15:03.770Z,99379.59
2023-02-25T17:17:36.385Z,99378.91
2023-02-25T17:20:09.183Z,99396.00
2023-02-25T17:22:38.157Z,99391.94
2023-02-25T17:25:06.350Z,99393.78
2023-02-25T17:27:34.582Z,99393.38
2023-02-25T17:30:02.063Z,99385.19
2023-02-25T17:32:30.828Z,99395.09
2023-02-25T17:35:03.120Z,99385.47
2023-02-25T17:37:31.988Z,99389.84
2023-02-25T17:40:01.205Z,99390.84
2023-02-25T17:42:37.505Z,99396.22
2023-02-25T17:45:38.743Z,99397.50
2023-02-25T17:48:06.082Z,99392.59
2023-02-25T17:50:33.649Z,99396.13
2023-02-25T17:53:00.746Z,99394.56
2023-02-25T17:55:34.304Z,99399.25
2023-02-25T17:58:03.110Z,99396.03
2023-02-25T18:00:34.531Z,99389.94
2023-02-25T18:03:21.153Z,99390.94
2023-02-25T18:05:55.896Z,99390.53
2023-02-25T18:08:25.972Z,99382.75
2023-02-25T18:11:16.498Z,99384.06
2023-02-25T18:13:43.901Z,99381.81
2023-02-25T18:16:27.283Z,99376.59
2023-02-25T18:18:55.533Z,99380.56
2023-02-25T18:21:22.891Z,99382.53
2023-02-25T18:23:51.207Z,99380.16
2023-02-25T18:26:25.751Z,99378.63
2023-02-25T18:28:59.690Z,99374.50
2023-02-25T18:31:27.035Z,99385.72
2023-02-25T18:33:55.152Z,99378.06
2023-02-25T18:36:26.684Z,99376.97
2023-02-25T18:38:58.179Z,99376.56
2023-02-25T18:41:25.274Z,99377.28
2023-02-25T18:43:54.674Z,99371.47
2023-02-25T18:46:22.035Z,99380.78
2023-02-25T18:48:49.250Z,99381.22
2023-02-25T18:51:16.268Z,99386.16
2023-02-25T18:53:44.318Z,99385.75
2023-02-25T18:56:17.460Z,99388.72
2023-02-25T18:58:45.404Z,99377.44
2023-02-25T19:01:25.290Z,99374.19
2023-02-25T19:03:59.303Z,99375.44
2023-02-25T19:06:28.302Z,99382.94
2023-02-25T19:08:55.323Z,99375.16
2023-02-25T19:11:27.243Z,99389.84
2023-02-25T19:13:54.585Z,99379.41
2023-02-25T19:16:23.336Z,99380.41
2023-02-25T19:18:50.615Z,99383.22
2023-02-25T19:21:20.833Z,99373.47
2023-02-25T19:23:53.859Z,99374.31
2023-02-25T19:26:21.714Z,99369.13
2023-02-25T19:28:48.993Z,99371.91
2023-02-25T19:31:18.333Z,99373.06
2023-02-25T19:33:45.944Z,99371.34
2023-02-25T19:36:13.342Z,99372.78
2023-02-25T19:38:40.368Z,99366.00
2023-02-25T19:41:07.547Z,99371.63
2023-02-25T19:43:35.089Z,99369.22
2023-02-25T19:46:02.685Z,99373.63
2023-02-25T19:48:29.690Z,99376.16
2023-02-25T19:50:56.801Z,99370.78
2023-02-25T19:53:23.843Z,99371.63
2023-02-25T19:55:56.669Z,99372.47
2023-02-25T19:58:23.777Z,99366.13
2023-02-25T20:00:50.979Z,99369.09
2023-02-25T20:03:18.063Z,99362.06
2023-02-25T20:05:45.264Z,99362.34
2023-02-25T20:08:12.227Z,99362.44
2023-02-25T20:10:43.263Z,99367.81
2023-02-25T20:13:10.575Z,99359.94
2023-02-25T20:15:38.050Z,99358.22
2023-02-25T20:18:05.329Z,99356.53
2023-02-25T20:20:32.508Z,99354.13
2023-02-25T20:22:59.835Z,99348.91
2023-02-25T20:25:26.898Z,99350.88
2023-02-25T20:27:53.995Z,99357.22
2023-02-25T20:30:23.001Z,99352.16
2023-02-25T20:32:50.262Z,99345.34
2023-02-25T20:35:21.269Z,99348.19
2023-02-25T20:38:24.777Z,99351.97
2023-02-25T20:40:51.888Z,99347.88
2023-02-25T20:43:19.117Z,99340.13
2023-02-25T20:45:46.399Z,99337.59
2023-02-25T20:48:28.390Z,99338.72
2023-02-25T20:50:56.465Z,99337.16
2023-02-25T20:53:24.540Z,99341.78
2023-02-25T20:55:56.369Z,99336.59
2023-02-25T20:58:23.692Z,99329.81
2023-02-25T21:00:50.894Z,99331.63
2023-02-25T21:03:18.269Z,99324.56
2023-02-25T21:05:45.574Z,99330.09
2023-02-25T21:08:12.657Z,99326.94
2023-02-25T21:10:39.916Z,99325.38
2023-02-25T21:13:08.010Z,99336.34
2023-02-25T21:15:36.577Z,99330.41
2023-02-25T21:18:03.779Z,99327.06
2023-02-25T21:20:31.686Z,99324.50
2023-02-25T21:22:58.803Z,99321.81
2023-02-25T21:25:25.889Z,99316.72
2023-02-25T21:27:52.885Z,99322.94
2023-02-25T21:30:20.126Z,99306.03
2023-02-25T21:32:47.544Z,99314.06
2023-02-25T21:35:14.593Z,99320.41
2023-02-25T21:37:42.217Z,99322.22
2023-02-25T21:40:10.657Z,99315.03
2023-02-25T21:42:37.652Z,99318.72
2023-02-25T21:45:05.755Z,99315.03
2023-02-25T21:47:32.772Z,99307.00
2023-02-25T21:50:00.007Z,99305.31
2023-02-25T21:52:27.202Z,99300.81
2023-02-25T21:54:55.390Z,99293.63
2023-02-25T21:57:22.547Z,99295.31
2023-02-25T21:59:50.690Z,99288.13
2023-02-25T22:02:17.962Z,99280.09
2023-02-25T22:04:47.877Z,99274.72
2023-02-25T22:07:14.989Z,99279.13
2023-02-25T22:09:42.130Z,99268.25
2023-02-25T22:12:09.288Z,99272.78
2023-02-25T22:14:36.379Z,99275.44
2023-02-25T22:17:03.456Z,99270.94
2023-02-25T22:19:30.621Z,99259.53
2023-02-25T22:21:57.762Z,99261.22
2023-02-25T22:24:24.878Z,99261.22
2023-02-25T22:26:52.186Z,99260.22
2023-02-25T22:29:19.205Z,99255.72
2023-02-25T22:31:46.492Z,99254.75
2023-02-25T22:34:13.796Z,99246.84
2023-02-25T22:36:40.918Z,99248.66
2023-02-25T22:39:09.890Z,99242.59
2023-02-25T22:41:38.146Z,99241.75
2023-02-25T22:44:06.264Z,99241.91
2023-02-25T22:46:36.618Z,99241.75
2023-02-25T22:49:05.850Z,99241.75
2023-02-25T22:51:42.815Z,99239.06
2023-02-25T22:54:17.658Z,99236.41
2023-02-25T22:56:46.188Z,99235.56
2023-02-25T22:59:14.647Z,99241.91
2023-02-25T23:01:42.247Z,99245.28
2023-02-25T23:04:09.417Z,99239.06
2023-02-25T23:06:43.972Z,99254.19
2023-02-25T23:09:13.765Z,99249.50
2023-02-25T23:11:43.406Z,99239.06
2023-02-25T23:14:11.089Z,99245.28
2023-02-25T23:16:45.868Z,99238.97
2023-02-25T23:19:16.981Z,99243.47
2023-02-25T23:21:44.775Z,99240.63
2023-02-25T23:24:18.741Z,99233.44
2023-02-25T23:26:50.156Z,99234.44
2023-02-25T23:29:17.359Z,99239.81
2023-02-25T23:31:47.173Z,99234.44
2023-02-25T23:34:20.658Z,99228.09
2023-02-25T23:36:47.727Z,99229.22
2023-02-25T23:39:15.751Z,99234.44
2023-02-25T23:41:43.714Z,99226.53
2023-02-25T23:44:13.484Z,99229.09
2023-02-25T23:46:45.203Z,99233.72
2023-02-25T23:49:14.954Z,99220.34
2023-02-25T23:51:44.801Z,99231.88
2023-02-25T23:54:15.967Z,99228.38
2023-02-25T23:56:43.368Z,99228.53
2023-02-25T23:59:11.041Z,99224.00
